Avon, Montana
Current Conditions -  °F | °C
As of 4:53 PM on Wednesday 22 Oct 2014 (Local Time) from KHLN Reporting Station
Clear Clear  
Wind Chill: 62°   Ceiling: Unl
Heat Index: 62°   Visibility: 10mi
Dew Point: 28°   Wind: 5mph
Humidity: 28%   Direction: 220°SW
Pressure: 29.93"   Gusts: NA
Location:  46.59°N, 112.61°W
Report Text: KHLN 222253Z 22004KT 10SM CLR 17/M02 A2993 RMK AO2 SLP148 T01671022
Loading
Personal Weather Stations






























Interactive Weather Map
Tropical Storm Tracking
New forecast layout! Learn more

10-Day Weather Forecast

Advertisements
Track Severe Weather on mobile